Kandilousa — SYIF — position and weather

sailwx.info

Track history (hours):
 
Tides and Currents Weather Stations Pressure Air Temp Water Temp Dewpoint Dewpoint Depression Visibility Wind Speed Wind Dir Waves Ship Positions

Kandilousa

Last reported at 2014-Oct-25 07:31 UTC. Time now 2014-Oct-25 07:46 UTC.
Position N 40°31' W 073°41'.

Length 183 m; draft 8 m.

Type: Tanker. MMSI: 239354000.

Date/timePositionNaut miles runAvg speedWind from/ knotsBaromVisibWave heightAir tempDewpointWater temp
2014-Oct-25 07:31N 40°31' W 073°41'0 0.0
2014-Oct-25 06:31N 40°31' W 073°41'0 0.0
2014-Oct-25 05:25N 40°31' W 073°41'0 0.0
2014-Oct-25 04:28N 40°31' W 073°41'0 0.0
2014-Oct-24 13:13N 40°31' W 073°41'0 0.0
2014-Oct-24 09:04N 40°31' W 073°41'0 0.0
2014-Oct-23 23:28N 40°31' W 073°41'0 0.0
2014-Oct-23 22:13N 40°31' W 073°41'0 0.0
2014-Oct-23 21:07N 40°31' W 073°41'0 0.0
2014-Oct-23 20:31N 40°31' W 073°41'0 0.0
2014-Oct-23 16:31N 40°31' W 073°41'0 0.0
2014-Oct-23 14:19N 40°31' W 073°41'0 0.0
2014-Oct-22 19:07N 40°31' W 073°41'0 0.0
2014-Oct-22 17:31N 40°31' W 073°41'0 0.0
2014-Oct-22 15:22N 40°31' W 073°41'0 0.0
2014-Oct-22 14:25N 40°32' W 073°41'0 0.0
2014-Oct-22 13:19N 40°32' W 073°41'0 0.0
2014-Oct-22 12:25N 40°32' W 073°41'0 0.0
2014-Oct-22 10:19N 40°31' W 073°41'0 0.1
2014-Oct-22 09:25N 40°31' W 073°41'0 0.0
2014-Oct-22 08:19N 40°32' W 073°41'0 0.1
2014-Oct-22 07:28N 40°32' W 073°41'0 0.1
2014-Oct-22 06:31N 40°32' W 073°41'0 0.0
2014-Oct-22 05:25N 40°32' W 073°41'0 0.1
2014-Oct-22 03:25N 40°32' W 073°41'0 0.1
2014-Oct-22 02:13N 40°32' W 073°41'0 0.1
2014-Oct-22 00:13N 40°32' W 073°41'0 0.0
2014-Oct-21 15:19N 40°32' W 073°41'0 0.0
2014-Oct-21 14:31N 40°32' W 073°41'0 0.0
2014-Oct-21 13:31N 40°32' W 073°41'0 0.0
2014-Oct-21 12:31N 40°32' W 073°41'0 0.0
2014-Oct-21 11:31N 40°32' W 073°41'0 0.1
2014-Oct-21 10:31N 40°32' W 073°41'0 0.1
2014-Oct-21 09:31N 40°32' W 073°41'0 0.0
2014-Oct-21 08:31N 40°32' W 073°41'0 0.0
2014-Oct-21 07:28N 40°32' W 073°41'0 0.0
2014-Oct-21 06:31N 40°32' W 073°41'0 0.0
2014-Oct-21 05:19N 40°32' W 073°41'0 0.0
2014-Oct-21 04:07N 40°32' W 073°41'0 0.0
2014-Oct-21 01:28N 40°32' W 073°41'0 0.0
2014-Oct-21 00:25N 40°32' W 073°41'0 0.0
2014-Oct-20 23:16N 40°32' W 073°41'0 0.0
2014-Oct-20 19:19N 40°32' W 073°41'0 0.1
2014-Oct-20 18:31N 40°32' W 073°41'0 0.0
2014-Oct-20 17:28N 40°32' W 073°41'0 0.0
2014-Oct-20 16:28N 40°32' W 073°41'0 0.0
2014-Oct-20 15:28N 40°32' W 073°41'0 0.0
2014-Oct-20 14:31N 40°32' W 073°41'0 0.0
2014-Oct-20 13:31N 40°32' W 073°41'0 0.0
2014-Oct-20 12:31N 40°32' W 073°41'0 0.0
2014-Oct-20 11:31N 40°32' W 073°41'0 0.0
2014-Oct-20 10:28N 40°32' W 073°41'0 0.0
2014-Oct-20 09:33N 40°32' W 073°41'0 0.0
2014-Oct-20 08:33N 40°32' W 073°41'0 0.0
2014-Oct-20 07:33N 40°31' W 073°41'0 0.0
2014-Oct-20 06:33N 40°31' W 073°41'4 3.5
2014-Oct-20 05:33N 40°30' W 073°45'10 9.5
2014-Oct-20 04:33N 40°30' W 073°57'9 9.2
2014-Oct-20 03:32N 40°38' W 074°04'0 0.0
2014-Oct-20 02:29N 40°38' W 074°04'0 0.0
2014-Oct-20 01:32N 40°38' W 074°04'0 0.0
2014-Oct-20 00:32N 40°38' W 074°04'0 0.0
2014-Oct-19 23:32N 40°38' W 074°04'0 0.1
2014-Oct-19 22:32N 40°38' W 074°04'2 2.3
2014-Oct-19 21:33N 40°39' W 074°07'0 0.1
2014-Oct-19 20:06N 40°39' W 074°07'0 0.0
2014-Oct-19 19:18N 40°39' W 074°07'0 0.0
2014-Oct-19 18:18N 40°39' W 074°07'0 0.1
2014-Oct-19 17:30N 40°39' W 074°07'0 0.0
2014-Oct-19 16:30N 40°39' W 074°07'0 0.0
2014-Oct-19 15:24N 40°39' W 074°07'0 0.0
2014-Oct-19 14:30N 40°39' W 074°07'0 0.0
2014-Oct-19 13:30N 40°39' W 074°07'0 0.0
2014-Oct-19 12:24N 40°39' W 074°07'0 0.1
2014-Oct-19 11:30N 40°39' W 074°07'0 0.1
2014-Oct-19 10:24N 40°39' W 074°07'0 0.0
2014-Oct-19 09:12N 40°39' W 074°07'0 0.0
2014-Oct-19 08:30N 40°39' W 074°07'0 0.0
2014-Oct-19 07:30N 40°39' W 074°07'0 0.0
2014-Oct-19 06:30N 40°39' W 074°07'0 0.0
2014-Oct-19 05:30N 40°39' W 074°07'0 0.0
2014-Oct-19 04:30N 40°39' W 074°07'0 0.0
2014-Oct-19 03:30N 40°39' W 074°07'0 0.0
2014-Oct-19 02:30N 40°39' W 074°07'0 0.0
2014-Oct-19 01:24N 40°39' W 074°07'0 0.0
2014-Oct-19 00:30N 40°39' W 074°07'0 0.0
2014-Oct-18 23:30N 40°39' W 074°07'0 0.0
2014-Oct-18 18:24N 40°39' W 074°07'0 0.0
2014-Oct-18 17:18N 40°39' W 074°07'0 0.0
2014-Oct-18 14:33N 40°39' W 074°07'0 0.5
2014-Oct-18 13:33N 40°39' W 074°06'0 0.0
2014-Oct-18 12:21N 40°39' W 074°06'0 0.0
2014-Oct-18 11:30N 40°39' W 074°06'0 0.0
2014-Oct-18 10:09N 40°39' W 074°06'0 0.0
2014-Oct-18 09:24N 40°39' W 074°06'0 0.0
2014-Oct-18 08:27N 40°39' W 074°06'0 0.0
2014-Oct-18 07:30N 40°39' W 074°06'0 0.0
2014-Oct-18 06:30N 40°39' W 074°06'0 0.0
2014-Oct-18 05:30N 40°39' W 074°06'0 0.0
2014-Oct-18 04:33N 40°39' W 074°06'0 0.0
2014-Oct-18 03:33N 40°39' W 074°06'0 0.0
2014-Oct-18 02:33N 40°39' W 074°06'0 0.0
2014-Oct-18 01:30N 40°39' W 074°06'0 0.0
2014-Oct-18 00:30N 40°39' W 074°06'0 0.0
2014-Oct-17 23:30N 40°39' W 074°06'0 0.0
2014-Oct-17 22:32N 40°39' W 074°06'0 0.0
2014-Oct-17 21:32N 40°39' W 074°06'0 0.0
2014-Oct-17 20:32N 40°39' W 074°06'0 0.0
2014-Oct-17 19:32N 40°39' W 074°06'0 0.0
2014-Oct-17 18:32N 40°39' W 074°06'0 0.0
2014-Oct-17 17:32N 40°39' W 074°06'0 0.0
2014-Oct-17 16:32N 40°39' W 074°06'0 0.0
2014-Oct-17 15:26N 40°39' W 074°06'0 0.0
2014-Oct-17 14:26N 40°39' W 074°06'0 0.1
2014-Oct-17 07:34N 40°39' W 074°06'4 4.2
2014-Oct-17 06:34N 40°36' W 074°02'9 9.3
2014-Oct-17 05:33N 40°29' W 073°54'8 7.7
2014-Oct-17 04:33N 40°27' W 073°44'8 7.6
2014-Oct-17 03:33N 40°28' W 073°34'6 6.2
2014-Oct-17 02:34N 40°28' W 073°26'6 6.2
2014-Oct-17 01:33N 40°29' W 073°18'7 6.6
2014-Oct-17 00:33N 40°29' W 073°09'1111.0
2014-Oct-16 23:34N 40°30' W 072°55'1111.3
2014-Oct-16 22:34N 40°30' W 072°40'1111.2
2014-Oct-16 21:34N 40°31' W 072°25'1110.5
2014-Oct-16 20:33N 40°31' W 072°11'1110.9
2014-Oct-16 19:34N 40°31' W 071°57'1111.0
2014-Oct-16 18:34N 40°32' W 071°43'1111.1
2014-Oct-16 17:34N 40°32' W 071°28'1111.1
2014-Oct-16 16:34N 40°32' W 071°13'1211.5
2014-Oct-16 15:32N 40°32' W 070°58'6 6.6
2014-Oct-16 14:34N 40°33' W 070°50'1111.5
2014-Oct-16 13:34N 40°33' W 070°34'1211.6
2014-Oct-16 12:32N 40°34' W 070°19'1111.3
2014-Oct-16 11:33N 40°34' W 070°04'1111.1
2014-Oct-16 10:33N 40°34' W 069°50'1111.1
2014-Oct-16 09:33N 40°35' W 069°35'1110.8
2014-Oct-16 08:33N 40°35' W 069°21'1111.3
2014-Oct-16 07:34N 40°36' W 069°06'1211.6
2014-Oct-16 06:33N 40°38' W 068°51'1212.3
2014-Oct-16 05:33N 40°39' W 068°35'1312.7
2014-Oct-16 04:32N 40°41' W 068°18'  
Track history (hours):
 
Tides and Currents Weather Stations Pressure Air Temp Water Temp Dewpoint Dewpoint Depression Visibility Wind Speed Wind Dir Waves Ship Positions

Kandilousa

Last reported at 2014-Oct-25 07:31 UTC. Time now 2014-Oct-25 07:46 UTC.
Position N 40°31' W 073°41'.

Length 183 m; draft 8 m.

Type: Tanker. MMSI: 239354000.

Date/timePositionNaut miles runAvg speedWind from/ knotsBaromVisibWave heightAir tempDewpointWater temp
2014-Oct-25 07:31N 40°31' W 073°41'0 0.0
2014-Oct-25 06:31N 40°31' W 073°41'0 0.0
2014-Oct-25 05:25N 40°31' W 073°41'0 0.0
2014-Oct-25 04:28N 40°31' W 073°41'0 0.0
2014-Oct-24 13:13N 40°31' W 073°41'0 0.0
2014-Oct-24 09:04N 40°31' W 073°41'0 0.0
2014-Oct-23 23:28N 40°31' W 073°41'0 0.0
2014-Oct-23 22:13N 40°31' W 073°41'0 0.0
2014-Oct-23 21:07N 40°31' W 073°41'0 0.0
2014-Oct-23 20:31N 40°31' W 073°41'0 0.0
2014-Oct-23 16:31N 40°31' W 073°41'0 0.0
2014-Oct-23 14:19N 40°31' W 073°41'0 0.0
2014-Oct-22 19:07N 40°31' W 073°41'0 0.0
2014-Oct-22 17:31N 40°31' W 073°41'0 0.0
2014-Oct-22 15:22N 40°31' W 073°41'0 0.0
2014-Oct-22 14:25N 40°32' W 073°41'0 0.0
2014-Oct-22 13:19N 40°32' W 073°41'0 0.0
2014-Oct-22 12:25N 40°32' W 073°41'0 0.0
2014-Oct-22 10:19N 40°31' W 073°41'0 0.1
2014-Oct-22 09:25N 40°31' W 073°41'0 0.0
2014-Oct-22 08:19N 40°32' W 073°41'0 0.1
2014-Oct-22 07:28N 40°32' W 073°41'0 0.1
2014-Oct-22 06:31N 40°32' W 073°41'0 0.0
2014-Oct-22 05:25N 40°32' W 073°41'0 0.1
2014-Oct-22 03:25N 40°32' W 073°41'0 0.1
2014-Oct-22 02:13N 40°32' W 073°41'0 0.1
2014-Oct-22 00:13N 40°32' W 073°41'0 0.0
2014-Oct-21 15:19N 40°32' W 073°41'0 0.0
2014-Oct-21 14:31N 40°32' W 073°41'0 0.0
2014-Oct-21 13:31N 40°32' W 073°41'0 0.0
2014-Oct-21 12:31N 40°32' W 073°41'0 0.0
2014-Oct-21 11:31N 40°32' W 073°41'0 0.1
2014-Oct-21 10:31N 40°32' W 073°41'0 0.1
2014-Oct-21 09:31N 40°32' W 073°41'0 0.0
2014-Oct-21 08:31N 40°32' W 073°41'0 0.0
2014-Oct-21 07:28N 40°32' W 073°41'0 0.0
2014-Oct-21 06:31N 40°32' W 073°41'0 0.0
2014-Oct-21 05:19N 40°32' W 073°41'0 0.0
2014-Oct-21 04:07N 40°32' W 073°41'0 0.0
2014-Oct-21 01:28N 40°32' W 073°41'0 0.0
2014-Oct-21 00:25N 40°32' W 073°41'0 0.0
2014-Oct-20 23:16N 40°32' W 073°41'0 0.0
2014-Oct-20 19:19N 40°32' W 073°41'0 0.1
2014-Oct-20 18:31N 40°32' W 073°41'0 0.0
2014-Oct-20 17:28N 40°32' W 073°41'0 0.0
2014-Oct-20 16:28N 40°32' W 073°41'0 0.0
2014-Oct-20 15:28N 40°32' W 073°41'0 0.0
2014-Oct-20 14:31N 40°32' W 073°41'0 0.0
2014-Oct-20 13:31N 40°32' W 073°41'0 0.0
2014-Oct-20 12:31N 40°32' W 073°41'0 0.0
2014-Oct-20 11:31N 40°32' W 073°41'0 0.0
2014-Oct-20 10:28N 40°32' W 073°41'0 0.0
2014-Oct-20 09:33N 40°32' W 073°41'0 0.0
2014-Oct-20 08:33N 40°32' W 073°41'0 0.0
2014-Oct-20 07:33N 40°31' W 073°41'0 0.0
2014-Oct-20 06:33N 40°31' W 073°41'4 3.5
2014-Oct-20 05:33N 40°30' W 073°45'10 9.5
2014-Oct-20 04:33N 40°30' W 073°57'9 9.2
2014-Oct-20 03:32N 40°38' W 074°04'0 0.0
2014-Oct-20 02:29N 40°38' W 074°04'0 0.0
2014-Oct-20 01:32N 40°38' W 074°04'0 0.0
2014-Oct-20 00:32N 40°38' W 074°04'0 0.0
2014-Oct-19 23:32N 40°38' W 074°04'0 0.1
2014-Oct-19 22:32N 40°38' W 074°04'2 2.3
2014-Oct-19 21:33N 40°39' W 074°07'0 0.1
2014-Oct-19 20:06N 40°39' W 074°07'0 0.0
2014-Oct-19 19:18N 40°39' W 074°07'0 0.0
2014-Oct-19 18:18N 40°39' W 074°07'0 0.1
2014-Oct-19 17:30N 40°39' W 074°07'0 0.0
2014-Oct-19 16:30N 40°39' W 074°07'0 0.0
2014-Oct-19 15:24N 40°39' W 074°07'0 0.0
2014-Oct-19 14:30N 40°39' W 074°07'0 0.0
2014-Oct-19 13:30N 40°39' W 074°07'0 0.0
2014-Oct-19 12:24N 40°39' W 074°07'0 0.1
2014-Oct-19 11:30N 40°39' W 074°07'0 0.1
2014-Oct-19 10:24N 40°39' W 074°07'0 0.0
2014-Oct-19 09:12N 40°39' W 074°07'0 0.0
2014-Oct-19 08:30N 40°39' W 074°07'0 0.0
2014-Oct-19 07:30N 40°39' W 074°07'0 0.0
2014-Oct-19 06:30N 40°39' W 074°07'0 0.0
2014-Oct-19 05:30N 40°39' W 074°07'0 0.0
2014-Oct-19 04:30N 40°39' W 074°07'0 0.0
2014-Oct-19 03:30N 40°39' W 074°07'0 0.0
2014-Oct-19 02:30N 40°39' W 074°07'0 0.0
2014-Oct-19 01:24N 40°39' W 074°07'0 0.0
2014-Oct-19 00:30N 40°39' W 074°07'0 0.0
2014-Oct-18 23:30N 40°39' W 074°07'0 0.0
2014-Oct-18 18:24N 40°39' W 074°07'0 0.0
2014-Oct-18 17:18N 40°39' W 074°07'0 0.0
2014-Oct-18 14:33N 40°39' W 074°07'0 0.5
2014-Oct-18 13:33N 40°39' W 074°06'0 0.0
2014-Oct-18 12:21N 40°39' W 074°06'0 0.0
2014-Oct-18 11:30N 40°39' W 074°06'0 0.0
2014-Oct-18 10:09N 40°39' W 074°06'0 0.0
2014-Oct-18 09:24N 40°39' W 074°06'0 0.0
2014-Oct-18 08:27N 40°39' W 074°06'0 0.0
2014-Oct-18 07:30N 40°39' W 074°06'0 0.0
2014-Oct-18 06:30N 40°39' W 074°06'0 0.0
2014-Oct-18 05:30N 40°39' W 074°06'0 0.0
2014-Oct-18 04:33N 40°39' W 074°06'0 0.0
2014-Oct-18 03:33N 40°39' W 074°06'0 0.0
2014-Oct-18 02:33N 40°39' W 074°06'0 0.0
2014-Oct-18 01:30N 40°39' W 074°06'0 0.0
2014-Oct-18 00:30N 40°39' W 074°06'0 0.0
2014-Oct-17 23:30N 40°39' W 074°06'0 0.0
2014-Oct-17 22:32N 40°39' W 074°06'0 0.0
2014-Oct-17 21:32N 40°39' W 074°06'0 0.0
2014-Oct-17 20:32N 40°39' W 074°06'0 0.0
2014-Oct-17 19:32N 40°39' W 074°06'0 0.0
2014-Oct-17 18:32N 40°39' W 074°06'0 0.0
2014-Oct-17 17:32N 40°39' W 074°06'0 0.0
2014-Oct-17 16:32N 40°39' W 074°06'0 0.0
2014-Oct-17 15:26N 40°39' W 074°06'0 0.0
2014-Oct-17 14:26N 40°39' W 074°06'0 0.1
2014-Oct-17 07:34N 40°39' W 074°06'4 4.2
2014-Oct-17 06:34N 40°36' W 074°02'9 9.3
2014-Oct-17 05:33N 40°29' W 073°54'8 7.7
2014-Oct-17 04:33N 40°27' W 073°44'8 7.6
2014-Oct-17 03:33N 40°28' W 073°34'6 6.2
2014-Oct-17 02:34N 40°28' W 073°26'6 6.2
2014-Oct-17 01:33N 40°29' W 073°18'7 6.6
2014-Oct-17 00:33N 40°29' W 073°09'1111.0
2014-Oct-16 23:34N 40°30' W 072°55'1111.3
2014-Oct-16 22:34N 40°30' W 072°40'1111.2
2014-Oct-16 21:34N 40°31' W 072°25'1110.5
2014-Oct-16 20:33N 40°31' W 072°11'1110.9
2014-Oct-16 19:34N 40°31' W 071°57'1111.0
2014-Oct-16 18:34N 40°32' W 071°43'1111.1
2014-Oct-16 17:34N 40°32' W 071°28'1111.1
2014-Oct-16 16:34N 40°32' W 071°13'1211.5
2014-Oct-16 15:32N 40°32' W 070°58'6 6.6
2014-Oct-16 14:34N 40°33' W 070°50'1111.5
2014-Oct-16 13:34N 40°33' W 070°34'1211.6
2014-Oct-16 12:32N 40°34' W 070°19'1111.3
2014-Oct-16 11:33N 40°34' W 070°04'1111.1
2014-Oct-16 10:33N 40°34' W 069°50'1111.1
2014-Oct-16 09:33N 40°35' W 069°35'1110.8
2014-Oct-16 08:33N 40°35' W 069°21'1111.3
2014-Oct-16 07:34N 40°36' W 069°06'1211.6
2014-Oct-16 06:33N 40°38' W 068°51'1212.3
2014-Oct-16 05:33N 40°39' W 068°35'1312.7
2014-Oct-16 04:32N 40°41' W 068°18'  

Dump ship's entire track history